Tempiute, Nevada
Current Conditions -  °F | °C
As of 11:58 AM on Monday 26 Jan 2015 (Local Time) from KINS Reporting Station
Few Clouds Few Clouds  
Wind Chill: 64°   Ceiling: Unl
Heat Index: 64°   Visibility: 10mi
Dew Point: 27°   Wind: 0mph
Humidity: 25%   Direction: NA
Pressure: 30.15"   Gusts: NA
Location:  37.3772°N, 115.475°W
Report Text: KINS 261958Z AUTO 00000KT 10SM FEW210 18/M03 A3015 RMK AO2 SLP188 T01801026 $
Loading
Personal Weather Stations






























Interactive Weather Map New forecast layout! Learn more

10-Day Weather Forecast

Advertisements
Track Severe Weather on mobile